createdAt,value
2023-03-27T00:00:48.757Z,0
2023-03-27T00:01:48.744Z,0
2023-03-27T00:02:48.866Z,0
2023-03-27T00:03:48.838Z,0
2023-03-27T00:04:48.745Z,0
2023-03-27T00:05:48.757Z,0
2023-03-27T00:06:48.741Z,0
2023-03-27T00:07:48.749Z,0
2023-03-27T00:08:48.761Z,0
2023-03-27T00:09:48.743Z,0
2023-03-27T00:10:48.758Z,0
2023-03-27T00:11:48.745Z,0
2023-03-27T00:12:48.746Z,0
2023-03-27T00:13:50.405Z,0
2023-03-27T00:14:48.758Z,0
2023-03-27T00:15:48.754Z,0
2023-03-27T00:16:48.776Z,0
2023-03-27T00:17:48.743Z,0
2023-03-27T00:18:48.890Z,0
2023-03-27T00:19:48.750Z,0
2023-03-27T00:20:48.760Z,0
2023-03-27T00:21:48.755Z,0
2023-03-27T00:22:48.740Z,0
2023-03-27T00:23:48.747Z,0
2023-03-27T00:24:48.740Z,0
2023-03-27T00:25:48.752Z,0
2023-03-27T00:26:48.786Z,0
2023-03-27T00:27:48.741Z,0
2023-03-27T00:28:48.743Z,0
2023-03-27T00:29:48.739Z,0
2023-03-27T00:30:48.770Z,0
2023-03-27T00:31:48.743Z,0
2023-03-27T00:32:48.777Z,0
2023-03-27T00:33:48.729Z,0
2023-03-27T00:34:48.742Z,0
2023-03-27T00:35:48.769Z,0
2023-03-27T00:36:48.747Z,0
2023-03-27T00:37:48.740Z,0
2023-03-27T00:38:48.739Z,0
2023-03-27T00:39:48.743Z,0
2023-03-27T00:40:48.775Z,0
2023-03-27T00:41:48.754Z,0
2023-03-27T00:42:48.739Z,0
2023-03-27T00:43:48.742Z,0
2023-03-27T00:44:48.738Z,0
2023-03-27T00:45:48.746Z,0
2023-03-27T00:46:48.788Z,0
2023-03-27T00:47:48.734Z,0
2023-03-27T00:48:48.738Z,0
2023-03-27T00:49:48.735Z,0
2023-03-27T00:50:48.750Z,0
2023-03-27T00:51:48.742Z,0
2023-03-27T00:52:48.733Z,0
2023-03-27T00:53:48.739Z,0
2023-03-27T00:54:48.744Z,0
2023-03-27T00:55:48.759Z,0
2023-03-27T00:56:48.755Z,0
2023-03-27T00:57:48.737Z,0
2023-03-27T00:58:48.748Z,0
2023-03-27T00:59:48.738Z,0
2023-03-27T01:00:48.763Z,0
2023-03-27T01:01:48.769Z,0
2023-03-27T01:02:48.794Z,0
2023-03-27T01:03:48.931Z,0
2023-03-27T01:04:48.726Z,0
2023-03-27T01:05:48.750Z,0
2023-03-27T01:06:48.753Z,0
2023-03-27T01:08:00.401Z,0
2023-03-27T01:08:48.727Z,0
2023-03-27T01:09:48.736Z,0
2023-03-27T01:10:48.741Z,0
2023-03-27T01:11:48.732Z,0
2023-03-27T01:12:48.727Z,0
2023-03-27T01:13:48.731Z,0
2023-03-27T01:14:48.733Z,0
2023-03-27T01:15:48.752Z,0
2023-03-27T01:16:48.730Z,0
2023-03-27T01:17:48.736Z,0
2023-03-27T01:18:48.732Z,0
2023-03-27T01:19:48.730Z,0
2023-03-27T01:20:48.754Z,0
2023-03-27T01:21:48.733Z,0
2023-03-27T01:22:48.726Z,0
2023-03-27T01:24:00.574Z,0
2023-03-27T01:24:48.730Z,0
2023-03-27T01:25:48.734Z,0
2023-03-27T01:26:48.731Z,0
2023-03-27T01:27:48.724Z,0
2023-03-27T01:28:48.732Z,0
2023-03-27T01:29:48.739Z,0
2023-03-27T01:30:48.737Z,0
2023-03-27T01:31:48.777Z,0
2023-03-27T01:32:48.759Z,0
2023-03-27T01:33:48.729Z,0
2023-03-27T01:34:48.726Z,0
2023-03-27T01:35:48.756Z,0
2023-03-27T01:36:48.726Z,0
2023-03-27T01:37:48.720Z,0
2023-03-27T01:38:48.736Z,0
2023-03-27T01:39:48.727Z,0
2023-03-27T01:40:48.748Z,0
2023-03-27T01:41:48.730Z,0
2023-03-27T01:42:48.727Z,0
2023-03-27T01:43:48.743Z,0
2023-03-27T01:44:48.724Z,0
2023-03-27T01:45:48.750Z,0
2023-03-27T01:46:48.782Z,0
2023-03-27T01:47:48.814Z,0
2023-03-27T01:48:48.724Z,0
2023-03-27T01:49:48.724Z,0
2023-03-27T01:50:48.751Z,0
2023-03-27T01:51:48.723Z,0
2023-03-27T01:52:48.723Z,0
2023-03-27T01:53:48.726Z,0
2023-03-27T01:54:48.728Z,0
2023-03-27T01:55:48.746Z,0
2023-03-27T01:56:48.764Z,0
2023-03-27T01:57:50.051Z,0
2023-03-27T01:58:48.729Z,0
2023-03-27T01:59:48.740Z,0
2023-03-27T02:00:51.680Z,0
2023-03-27T02:01:48.799Z,0
2023-03-27T02:02:48.792Z,0
2023-03-27T02:03:48.723Z,0
2023-03-27T02:04:48.765Z,0
2023-03-27T02:05:48.740Z,0
2023-03-27T02:06:48.728Z,0
2023-03-27T02:07:48.726Z,0
2023-03-27T02:08:48.734Z,0
2023-03-27T02:09:48.722Z,0
2023-03-27T02:10:48.737Z,0
2023-03-27T02:11:48.724Z,0
2023-03-27T02:12:48.732Z,0
2023-03-27T02:13:48.724Z,0
2023-03-27T02:14:48.731Z,0
2023-03-27T02:15:48.740Z,0
2023-03-27T02:16:48.819Z,0
2023-03-27T02:17:48.768Z,0
2023-03-27T02:18:48.734Z,0
2023-03-27T02:19:48.728Z,0
2023-03-27T02:20:48.740Z,0
2023-03-27T02:21:48.733Z,0
2023-03-27T02:22:48.736Z,0
2023-03-27T02:23:48.729Z,0
2023-03-27T02:24:48.720Z,0
2023-03-27T02:25:48.739Z,0
2023-03-27T02:26:48.727Z,0
2023-03-27T02:27:48.740Z,0
2023-03-27T02:28:48.746Z,0
2023-03-27T02:29:48.730Z,0
2023-03-27T02:31:05.570Z,0
2023-03-27T02:31:48.752Z,0
2023-03-27T02:32:48.807Z,0
2023-03-27T02:33:48.719Z,0
2023-03-27T02:34:48.734Z,0
2023-03-27T02:35:48.772Z,0
2023-03-27T02:36:48.733Z,0
2023-03-27T02:37:48.738Z,0
2023-03-27T02:38:48.733Z,0
2023-03-27T02:39:48.754Z,0
2023-03-27T02:40:48.753Z,0
2023-03-27T02:41:48.735Z,0
2023-03-27T02:42:48.733Z,0
2023-03-27T02:43:48.760Z,0
2023-03-27T02:44:48.739Z,0
2023-03-27T02:45:48.779Z,0
2023-03-27T02:46:48.736Z,0
2023-03-27T02:47:48.796Z,0
2023-03-27T02:48:48.740Z,0
2023-03-27T02:49:48.732Z,0
2023-03-27T02:50:48.749Z,0
2023-03-27T02:51:48.741Z,0
2023-03-27T02:52:48.740Z,0
2023-03-27T02:53:48.750Z,0
2023-03-27T02:54:48.738Z,0
2023-03-27T02:55:48.756Z,0
2023-03-27T02:56:48.767Z,0
2023-03-27T02:57:52.078Z,0
2023-03-27T02:58:48.734Z,0
2023-03-27T02:59:48.730Z,0
2023-03-27T03:00:48.915Z,0
2023-03-27T03:01:48.835Z,0
2023-03-27T03:02:48.863Z,0
2023-03-27T03:03:48.756Z,0
2023-03-27T03:04:48.731Z,0
2023-03-27T03:05:48.751Z,0
2023-03-27T03:06:48.733Z,0
2023-03-27T03:07:48.766Z,0
2023-03-27T03:08:48.737Z,0
2023-03-27T03:09:48.740Z,0
2023-03-27T03:10:48.758Z,0
2023-03-27T03:11:48.753Z,0
2023-03-27T03:12:48.762Z,0
2023-03-27T03:13:48.739Z,0
2023-03-27T03:14:48.741Z,0
2023-03-27T03:15:50.255Z,0
2023-03-27T03:16:48.764Z,0
2023-03-27T03:17:48.742Z,0
2023-03-27T03:18:48.737Z,0
2023-03-27T03:19:48.747Z,0
2023-03-27T03:20:48.756Z,0
2023-03-27T03:21:48.741Z,0
2023-03-27T03:22:48.739Z,0
2023-03-27T03:23:57.806Z,0
2023-03-27T03:24:48.739Z,0
2023-03-27T03:25:48.750Z,0
2023-03-27T03:26:48.739Z,0
2023-03-27T03:27:48.750Z,0
2023-03-27T03:29:00.586Z,0
2023-03-27T03:29:48.740Z,0
2023-03-27T03:30:48.795Z,0
2023-03-27T03:31:48.736Z,0
2023-03-27T03:32:48.798Z,0
2023-03-27T03:33:48.735Z,0
2023-03-27T03:34:48.743Z,0
2023-03-27T03:35:48.821Z,0
2023-03-27T03:36:48.744Z,0
2023-03-27T03:37:50.612Z,0
2023-03-27T03:38:48.741Z,0
2023-03-27T03:39:48.748Z,0
2023-03-27T03:40:48.753Z,0
2023-03-27T03:41:48.744Z,0
2023-03-27T03:42:48.738Z,0
2023-03-27T03:43:48.737Z,0
2023-03-27T03:44:48.736Z,0
2023-03-27T03:45:48.774Z,0
2023-03-27T03:46:48.733Z,0
2023-03-27T03:47:48.779Z,0
2023-03-27T03:48:48.736Z,0
2023-03-27T03:49:48.740Z,0
2023-03-27T03:50:48.762Z,0
2023-03-27T03:52:03.809Z,0
2023-03-27T03:52:48.749Z,0
2023-03-27T03:53:48.740Z,0
2023-03-27T03:54:48.737Z,0
2023-03-27T03:55:48.917Z,0
2023-03-27T03:56:48.750Z,0
2023-03-27T03:57:48.733Z,0
2023-03-27T03:58:48.737Z,0
2023-03-27T03:59:48.734Z,0
2023-03-27T04:00:48.743Z,0
2023-03-27T04:01:48.757Z,0
2023-03-27T04:02:48.806Z,0
2023-03-27T04:03:48.882Z,0
2023-03-27T04:04:48.733Z,0
2023-03-27T04:05:48.763Z,0
2023-03-27T04:06:48.756Z,0
2023-03-27T04:07:48.735Z,0
2023-03-27T04:08:48.753Z,0
2023-03-27T04:09:48.724Z,0
2023-03-27T04:10:48.746Z,0
2023-03-27T04:11:48.728Z,0
2023-03-27T04:12:48.747Z,0
2023-03-27T04:13:48.721Z,0
2023-03-27T04:14:48.737Z,0
2023-03-27T04:15:48.762Z,0
2023-03-27T04:16:48.730Z,0
2023-03-27T04:17:48.847Z,0
2023-03-27T04:18:48.808Z,0
2023-03-27T04:19:48.737Z,0
2023-03-27T04:20:48.775Z,0
2023-03-27T04:21:48.736Z,0
2023-03-27T04:22:48.732Z,0
2023-03-27T04:23:48.732Z,0
2023-03-27T04:24:48.738Z,0
2023-03-27T04:25:48.823Z,0
2023-03-27T04:26:48.733Z,0
2023-03-27T04:27:48.730Z,0
2023-03-27T04:28:48.726Z,0
2023-03-27T04:29:48.737Z,0
2023-03-27T04:30:48.746Z,0
2023-03-27T04:31:48.787Z,0
2023-03-27T04:32:48.783Z,0
2023-03-27T04:33:48.734Z,0
2023-03-27T04:34:48.733Z,0
2023-03-27T04:36:06.748Z,0
2023-03-27T04:36:48.739Z,0
2023-03-27T04:37:48.734Z,0
2023-03-27T04:38:48.747Z,0
2023-03-27T04:39:48.738Z,0
2023-03-27T04:40:48.752Z,0
2023-03-27T04:41:48.736Z,0
2023-03-27T04:42:48.732Z,0
2023-03-27T04:43:48.743Z,0
2023-03-27T04:44:48.744Z,0
2023-03-27T04:45:48.745Z,0
2023-03-27T04:46:48.807Z,0
2023-03-27T04:47:48.774Z,0
2023-03-27T04:48:48.739Z,0
2023-03-27T04:49:48.736Z,0
2023-03-27T04:50:48.751Z,0
2023-03-27T04:51:48.740Z,0.01
2023-03-27T04:52:50.307Z,0.01
2023-03-27T04:53:48.741Z,0.01
2023-03-27T04:54:48.741Z,0.01
2023-03-27T04:55:48.760Z,0.01
2023-03-27T04:56:48.747Z,0.01
2023-03-27T04:57:48.741Z,0.01
2023-03-27T04:58:48.736Z,0.01
2023-03-27T04:59:48.736Z,0.01
2023-03-27T05:00:48.788Z,0.01
2023-03-27T05:01:48.739Z,0.02
2023-03-27T05:02:48.790Z,0.02
2023-03-27T05:03:48.792Z,0.02
2023-03-27T05:04:48.739Z,0.02
2023-03-27T05:05:48.752Z,0.02
2023-03-27T05:06:48.747Z,0.03
2023-03-27T05:07:48.754Z,0.03
2023-03-27T05:08:48.741Z,0.03
2023-03-27T05:09:48.736Z,0.03
2023-03-27T05:10:48.745Z,0.03
2023-03-27T05:11:48.733Z,0.03
2023-03-27T05:12:48.728Z,0.04
2023-03-27T05:13:48.738Z,0.05
2023-03-27T05:14:48.735Z,0.05
2023-03-27T05:15:48.742Z,0.06
2023-03-27T05:16:48.803Z,0.08
2023-03-27T05:17:48.824Z,0.09
2023-03-27T05:18:48.739Z,0.09
2023-03-27T05:19:48.735Z,0.09
2023-03-27T05:20:48.777Z,0.09
2023-03-27T05:21:48.739Z,0.09
2023-03-27T05:22:48.731Z,0.1
2023-03-27T05:23:48.742Z,0.1
2023-03-27T05:24:48.733Z,0.09
2023-03-27T05:25:59.693Z,0.11
2023-03-27T05:26:48.736Z,0.12
2023-03-27T05:27:48.733Z,0.14
2023-03-27T05:28:48.733Z,0.14
2023-03-27T05:29:48.721Z,0.14
2023-03-27T05:30:48.800Z,0.14
2023-03-27T05:31:48.748Z,0.12
2023-03-27T05:32:48.795Z,0.12
2023-03-27T05:33:48.742Z,0.14
2023-03-27T05:34:48.733Z,0.15
2023-03-27T05:35:48.812Z,0.16
2023-03-27T05:36:48.726Z,0.16
2023-03-27T05:37:48.741Z,0.18
2023-03-27T05:38:48.740Z,0.19
2023-03-27T05:39:48.749Z,0.19
2023-03-27T05:40:48.757Z,0.2
2023-03-27T05:41:48.731Z,0.23
2023-03-27T05:42:48.731Z,0.24
2023-03-27T05:43:50.251Z,0.25
2023-03-27T05:44:48.748Z,0.26
2023-03-27T05:45:48.762Z,0.27
2023-03-27T05:46:48.721Z,0.28
2023-03-27T05:47:48.775Z,0.28
2023-03-27T05:48:48.735Z,0.29
2023-03-27T05:49:48.739Z,0.3
2023-03-27T05:50:48.738Z,0.3
2023-03-27T05:51:48.735Z,0.31
2023-03-27T05:52:48.735Z,0.32
2023-03-27T05:53:48.729Z,0.34
2023-03-27T05:54:48.730Z,0.35
2023-03-27T05:55:48.751Z,0.35
2023-03-27T05:56:48.755Z,0.36
2023-03-27T05:57:48.738Z,0.37
2023-03-27T05:58:48.731Z,0.37
2023-03-27T05:59:48.739Z,0.38
2023-03-27T06:00:48.743Z,0.38
2023-03-27T06:01:48.735Z,0.38
2023-03-27T06:02:48.783Z,0.38
2023-03-27T06:03:48.886Z,0.37
2023-03-27T06:04:48.738Z,0.37
2023-03-27T06:05:48.753Z,0.37
2023-03-27T06:06:48.736Z,0.36
2023-03-27T06:07:48.762Z,0.35
2023-03-27T06:08:48.729Z,0.31
2023-03-27T06:09:48.735Z,0.3
2023-03-27T06:10:48.751Z,0.33
2023-03-27T06:11:48.745Z,0.34
2023-03-27T06:12:49.119Z,0.36
2023-03-27T06:13:48.735Z,0.38
2023-03-27T06:14:48.722Z,0.39
2023-03-27T06:15:48.776Z,0.38
2023-03-27T06:16:48.735Z,0.39
2023-03-27T06:17:48.763Z,0.41
2023-03-27T06:18:48.735Z,0.42
2023-03-27T06:19:48.733Z,0.42
2023-03-27T06:20:48.745Z,0.39
2023-03-27T06:21:48.745Z,0.43
2023-03-27T06:22:48.744Z,0.45
2023-03-27T06:23:48.740Z,0.42
2023-03-27T06:24:48.736Z,0.38
2023-03-27T06:25:48.750Z,0.43
2023-03-27T06:26:48.748Z,0.5
2023-03-27T06:27:48.737Z,0.6
2023-03-27T06:28:48.736Z,0.74
2023-03-27T06:29:48.742Z,0.75
2023-03-27T06:30:48.780Z,0.74
2023-03-27T06:31:48.732Z,0.7
2023-03-27T06:32:48.794Z,0.67
2023-03-27T06:33:48.743Z,0.63
2023-03-27T06:34:48.733Z,0.58
2023-03-27T06:35:53.305Z,0.66
2023-03-27T06:36:48.751Z,0.71
2023-03-27T06:37:50.628Z,0.62
2023-03-27T06:38:48.749Z,0.66
2023-03-27T06:39:48.736Z,0.76
2023-03-27T06:40:48.749Z,0.76
2023-03-27T06:41:48.740Z,0.69
2023-03-27T06:42:48.726Z,0.63
2023-03-27T06:43:48.732Z,0.67
2023-03-27T06:44:48.753Z,0.76
2023-03-27T06:45:48.747Z,0.83
2023-03-27T06:46:48.765Z,0.89
2023-03-27T06:47:54.852Z,0.91
2023-03-27T06:48:48.831Z,0.94
2023-03-27T06:49:48.760Z,0.96
2023-03-27T06:50:48.775Z,0.93
2023-03-27T06:51:48.744Z,0.95
2023-03-27T06:52:48.737Z,0.94
2023-03-27T06:53:48.739Z,0.98
2023-03-27T06:54:48.733Z,1.02
2023-03-27T06:55:48.774Z,1.04
2023-03-27T06:56:48.772Z,1.07
2023-03-27T06:57:48.742Z,1.08
2023-03-27T06:58:48.748Z,1.07
2023-03-27T06:59:48.744Z,1.06
2023-03-27T07:00:49.041Z,1.03
2023-03-27T07:01:48.792Z,0.96
2023-03-27T07:02:48.770Z,0.9
2023-03-27T07:03:48.755Z,0.94
2023-03-27T07:05:01.640Z,0.92
2023-03-27T07:05:48.834Z,0.95
2023-03-27T07:06:48.728Z,1
2023-03-27T07:08:49.242Z,1.05
2023-03-27T07:09:48.733Z,1.07
2023-03-27T07:10:59.748Z,1.07
2023-03-27T07:11:48.735Z,1.08
2023-03-27T07:12:48.746Z,1.09
2023-03-27T07:13:48.733Z,1.09
2023-03-27T07:14:48.741Z,1.1
2023-03-27T07:15:48.748Z,1.1
2023-03-27T07:16:48.794Z,1.1
2023-03-27T07:17:49.403Z,1.09
2023-03-27T07:18:48.736Z,1.03
2023-03-27T07:19:48.723Z,1.03
2023-03-27T07:20:48.749Z,0.86
2023-03-27T07:21:48.737Z,0.8
2023-03-27T07:22:48.725Z,0.8
2023-03-27T07:23:48.737Z,0.77
2023-03-27T07:24:48.738Z,0.91
2023-03-27T07:25:48.753Z,1.13
2023-03-27T07:26:48.721Z,1.22
2023-03-27T07:27:48.737Z,1.27
2023-03-27T07:28:48.731Z,1.31
2023-03-27T07:29:48.728Z,1.32
2023-03-27T07:30:48.747Z,1.36
2023-03-27T07:31:56.624Z,1.38
2023-03-27T07:32:48.858Z,1.43
2023-03-27T07:33:48.816Z,1.48
2023-03-27T07:34:48.733Z,1.46
2023-03-27T07:35:48.823Z,1.48
2023-03-27T07:36:48.734Z,1.52
2023-03-27T07:37:48.751Z,1.55
2023-03-27T07:38:48.741Z,1.58
2023-03-27T07:39:48.726Z,1.6
2023-03-27T07:40:48.756Z,1.63
2023-03-27T07:41:48.730Z,1.66
2023-03-27T07:42:48.737Z,1.68
2023-03-27T07:43:48.745Z,1.7
2023-03-27T07:44:48.745Z,1.69
2023-03-27T07:45:48.842Z,1.6
2023-03-27T07:46:48.726Z,1.53
2023-03-27T07:47:48.879Z,1.41
2023-03-27T07:48:48.723Z,1.42
2023-03-27T07:49:48.725Z,1.61
2023-03-27T07:50:48.746Z,1.6
2023-03-27T07:51:48.737Z,1.58
2023-03-27T07:52:48.732Z,1.69
2023-03-27T07:53:48.748Z,2.03
2023-03-27T07:54:48.746Z,1.77
2023-03-27T07:55:48.778Z,1.75
2023-03-27T07:56:48.906Z,2.03
2023-03-27T07:58:00.561Z,2.02
2023-03-27T07:58:48.740Z,2.28
2023-03-27T07:59:48.736Z,2.29
2023-03-27T08:00:48.752Z,2.52
2023-03-27T08:01:48.736Z,2.57
2023-03-27T08:02:48.784Z,2.53
2023-03-27T08:03:48.960Z,2.54
2023-03-27T08:04:48.840Z,2.59
2023-03-27T08:05:48.747Z,2.56
2023-03-27T08:06:48.742Z,2.3
2023-03-27T08:07:48.737Z,2.48
2023-03-27T08:08:48.734Z,2.52
2023-03-27T08:09:48.733Z,2.66
2023-03-27T08:10:48.756Z,2.72
2023-03-27T08:11:48.735Z,2.69
2023-03-27T08:12:48.735Z,2.94
2023-03-27T08:13:48.731Z,2.68
2023-03-27T08:14:48.730Z,2.71
2023-03-27T08:15:48.753Z,2.74
2023-03-27T08:16:48.729Z,2.94
2023-03-27T08:17:48.788Z,3.24
2023-03-27T08:18:48.730Z,6.82
2023-03-27T08:19:48.734Z,6.82
2023-03-27T08:20:48.749Z,4.76
2023-03-27T08:21:48.731Z,7.55
2023-03-27T08:22:48.752Z,6.77
2023-03-27T08:23:48.737Z,7.09
2023-03-27T08:24:48.733Z,7.47
2023-03-27T08:25:48.749Z,8.26
2023-03-27T08:26:48.730Z,3.66
2023-03-27T08:27:48.733Z,5.17
2023-03-27T08:28:48.753Z,4.36
2023-03-27T08:29:48.730Z,5.5
2023-03-27T08:30:48.780Z,4.25
2023-03-27T08:31:48.739Z,7.34
2023-03-27T08:32:48.752Z,6.64
2023-03-27T08:33:48.759Z,7.08
2023-03-27T08:34:48.720Z,3.86
2023-03-27T08:35:48.788Z,7.09
2023-03-27T08:36:48.724Z,5.41
2023-03-27T08:37:48.748Z,3.82
2023-03-27T08:38:48.738Z,2.73
2023-03-27T08:39:48.736Z,2.34
2023-03-27T08:40:48.747Z,2.83
2023-03-27T08:41:48.742Z,2.59
2023-03-27T08:42:48.754Z,1.9
2023-03-27T08:43:48.743Z,1.68
2023-03-27T08:44:48.735Z,1.42
2023-03-27T08:45:48.748Z,1.21
2023-03-27T08:46:48.777Z,1.1
2023-03-27T08:47:48.823Z,1.08
2023-03-27T08:48:48.745Z,1.19
2023-03-27T08:49:48.729Z,1.21
2023-03-27T08:50:48.753Z,1.35
2023-03-27T08:51:48.732Z,1.66
2023-03-27T08:52:48.738Z,1.9
2023-03-27T08:53:48.736Z,1.99
2023-03-27T08:54:48.751Z,2.34
2023-03-27T08:55:48.757Z,2.99
2023-03-27T08:56:48.781Z,3.08
2023-03-27T08:57:48.746Z,3.15
2023-03-27T08:58:48.733Z,3.32
2023-03-27T08:59:48.739Z,3.33
2023-03-27T09:00:48.750Z,3.31
2023-03-27T09:01:48.791Z,3.94
2023-03-27T09:02:48.827Z,4.27
2023-03-27T09:03:48.866Z,4.17
2023-03-27T09:04:48.740Z,4.37
2023-03-27T09:05:48.759Z,3.58
2023-03-27T09:06:48.751Z,3.24
2023-03-27T09:07:48.735Z,3.1
2023-03-27T09:08:48.738Z,3.11
2023-03-27T09:09:48.739Z,3.3
2023-03-27T09:10:48.759Z,3.69
2023-03-27T09:11:48.745Z,4.1
2023-03-27T09:12:48.740Z,4.56
2023-03-27T09:13:48.731Z,4.11
2023-03-27T09:14:48.745Z,4.3
2023-03-27T09:15:48.784Z,3.31
2023-03-27T09:16:48.802Z,4.8
2023-03-27T09:17:48.798Z,4.55
2023-03-27T09:18:48.732Z,3.45
2023-03-27T09:19:48.743Z,3.45
2023-03-27T09:20:48.748Z,2.67
2023-03-27T09:21:48.738Z,2.39
2023-03-27T09:22:48.729Z,2.46
2023-03-27T09:23:48.741Z,3.12
2023-03-27T09:24:48.730Z,3.23
2023-03-27T09:25:48.758Z,3.15
2023-03-27T09:26:55.147Z,3.15
2023-03-27T09:27:48.728Z,3.07
2023-03-27T09:28:49.054Z,2.49
2023-03-27T09:29:48.736Z,2.1
2023-03-27T09:30:48.755Z,1.79
2023-03-27T09:31:48.749Z,1.75
2023-03-27T09:32:48.807Z,1.95
2023-03-27T09:33:48.732Z,2.36
2023-03-27T09:34:48.723Z,3.23
2023-03-27T09:35:48.776Z,3.09
2023-03-27T09:36:48.727Z,2.73
2023-03-27T09:37:48.732Z,2.99
2023-03-27T09:38:48.728Z,2.33
2023-03-27T09:39:48.738Z,2.09
2023-03-27T09:40:48.757Z,2.2
2023-03-27T09:41:48.728Z,2.46
2023-03-27T09:42:48.739Z,2.65
2023-03-27T09:43:48.733Z,2.93
2023-03-27T09:44:48.746Z,2.41
2023-03-27T09:45:48.737Z,2.23
2023-03-27T09:46:48.792Z,2.14
2023-03-27T09:47:48.766Z,2.1
2023-03-27T09:48:48.734Z,2.09
2023-03-27T09:49:48.750Z,2.2
2023-03-27T09:50:48.758Z,2.59
2023-03-27T09:51:48.737Z,3.29
2023-03-27T09:52:48.738Z,4.61
2023-03-27T09:53:48.740Z,5.62
2023-03-27T09:54:48.735Z,5.49
2023-03-27T09:55:48.755Z,5.05
2023-03-27T09:56:48.776Z,5.6
2023-03-27T09:57:48.743Z,6.53
2023-03-27T09:58:48.738Z,8.37
2023-03-27T09:59:48.737Z,7.05
2023-03-27T10:00:48.769Z,9.31
2023-03-27T10:01:48.729Z,8.79
2023-03-27T10:02:48.767Z,10
2023-03-27T10:03:48.871Z,11.05
2023-03-27T10:04:48.731Z,11.2
2023-03-27T10:05:48.742Z,11.33
2023-03-27T10:06:48.759Z,8.38
2023-03-27T10:07:48.741Z,10.63
2023-03-27T10:08:48.728Z,10.81
2023-03-27T10:09:48.736Z,12.66
2023-03-27T10:10:48.752Z,6.41
2023-03-27T10:11:48.762Z,12.94
2023-03-27T10:12:48.739Z,4.79
2023-03-27T10:13:48.744Z,7.54
2023-03-27T10:14:50.553Z,11.33
2023-03-27T10:15:48.751Z,12.84
2023-03-27T10:16:48.760Z,3.69
2023-03-27T10:17:48.786Z,13.48
2023-03-27T10:18:48.741Z,13.32
2023-03-27T10:19:48.732Z,13.32
2023-03-27T10:20:48.763Z,13.58
2023-03-27T10:21:48.740Z,14.53
2023-03-27T10:22:48.732Z,13.89
2023-03-27T10:23:48.808Z,12.36
2023-03-27T10:24:48.743Z,7.81
2023-03-27T10:25:48.753Z,3.69
2023-03-27T10:26:48.730Z,10.54
2023-03-27T10:27:48.739Z,2.2
2023-03-27T10:28:48.757Z,2
2023-03-27T10:29:48.737Z,2.04
2023-03-27T10:30:48.755Z,1.79
2023-03-27T10:31:48.781Z,1.4
2023-03-27T10:32:48.764Z,1.27
2023-03-27T10:33:48.749Z,1.59
2023-03-27T10:34:48.737Z,1.69
2023-03-27T10:35:48.845Z,8.19
2023-03-27T10:36:48.732Z,5.37
2023-03-27T10:37:49.911Z,2.76
2023-03-27T10:38:48.734Z,3.96
2023-03-27T10:39:48.743Z,8.76
2023-03-27T10:40:48.755Z,2.8
2023-03-27T10:41:48.739Z,2.06
2023-03-27T10:42:48.729Z,1.96
2023-03-27T10:43:48.757Z,1.92
2023-03-27T10:44:48.734Z,1.81
2023-03-27T10:45:48.787Z,2.4
2023-03-27T10:46:48.735Z,2.84
2023-03-27T10:47:48.768Z,2.54
2023-03-27T10:48:48.747Z,2.65
2023-03-27T10:49:48.740Z,2.93
2023-03-27T10:50:48.748Z,4.9
2023-03-27T10:51:48.730Z,4.55
2023-03-27T10:52:48.782Z,3.53
2023-03-27T10:53:48.831Z,12.86
2023-03-27T10:54:48.730Z,4.4
2023-03-27T10:55:48.918Z,10.14
2023-03-27T10:56:48.778Z,10.68
2023-03-27T10:57:48.743Z,12.44
2023-03-27T10:58:48.748Z,7.85
2023-03-27T10:59:48.753Z,6.89
2023-03-27T11:00:48.754Z,4.95
2023-03-27T11:01:48.827Z,5.77
2023-03-27T11:02:48.776Z,6.95
2023-03-27T11:03:48.854Z,6.73
2023-03-27T11:04:48.720Z,5.8
2023-03-27T11:05:48.769Z,6.39
2023-03-27T11:06:48.739Z,3.42
2023-03-27T11:07:48.735Z,2.93
2023-03-27T11:08:48.734Z,3.46
2023-03-27T11:09:48.732Z,2.17
2023-03-27T11:10:48.753Z,1.88
2023-03-27T11:11:48.776Z,1.66
2023-03-27T11:12:48.736Z,1.6
2023-03-27T11:13:48.737Z,1.87
2023-03-27T11:14:48.730Z,1.77
2023-03-27T11:15:48.741Z,1.78
2023-03-27T11:16:48.749Z,1.64
2023-03-27T11:17:48.808Z,1.41
2023-03-27T11:18:48.731Z,1.05
2023-03-27T11:19:48.734Z,1.05
2023-03-27T11:20:48.748Z,0.75
2023-03-27T11:21:48.728Z,0.91
2023-03-27T11:22:48.732Z,1.11
2023-03-27T11:23:48.729Z,1.39
2023-03-27T11:24:48.720Z,2.45
2023-03-27T11:25:48.739Z,11.02
2023-03-27T11:26:48.733Z,6.36
2023-03-27T11:27:48.729Z,12.22
2023-03-27T11:28:48.733Z,12.16
2023-03-27T11:29:48.736Z,12.04
2023-03-27T11:30:48.818Z,11.46
2023-03-27T11:31:48.782Z,10.53
2023-03-27T11:32:48.745Z,10.44
2023-03-27T11:33:48.720Z,11.55
2023-03-27T11:34:48.729Z,12.39
2023-03-27T11:35:48.831Z,12.46
2023-03-27T11:36:48.737Z,12.56
2023-03-27T11:37:48.729Z,12.11
2023-03-27T11:38:48.727Z,5.04
2023-03-27T11:39:48.734Z,11.59
2023-03-27T11:40:48.743Z,12
2023-03-27T11:41:48.737Z,12.55
2023-03-27T11:42:48.743Z,8
2023-03-27T11:43:48.739Z,14.33
2023-03-27T11:44:48.735Z,6.37
2023-03-27T11:45:48.761Z,4.19
2023-03-27T11:46:48.732Z,3.78
2023-03-27T11:47:48.785Z,2.44
2023-03-27T11:48:48.732Z,1.7
2023-03-27T11:49:48.730Z,1.93
2023-03-27T11:50:48.767Z,2.65
2023-03-27T11:51:48.736Z,2.04
2023-03-27T11:52:48.735Z,1.66
2023-03-27T11:53:48.728Z,2.06
2023-03-27T11:54:48.740Z,6.64
2023-03-27T11:55:48.901Z,4.58
2023-03-27T11:56:48.752Z,5.19
2023-03-27T11:57:48.737Z,4.13
2023-03-27T11:58:48.735Z,3.96
2023-03-27T11:59:48.739Z,2.57
2023-03-27T12:00:48.747Z,2.15
2023-03-27T12:01:48.753Z,2.04
2023-03-27T12:02:48.882Z,1.78
2023-03-27T12:03:48.838Z,2.12
2023-03-27T12:04:48.729Z,1.89
2023-03-27T12:05:48.751Z,1.2
2023-03-27T12:06:48.731Z,0.79
2023-03-27T12:07:48.736Z,0.66
2023-03-27T12:08:48.727Z,0.6
2023-03-27T12:09:48.754Z,0.63
2023-03-27T12:10:48.748Z,0.8
2023-03-27T12:11:48.757Z,0.79
2023-03-27T12:12:48.735Z,0.63
2023-03-27T12:13:58.226Z,0.5
2023-03-27T12:14:48.732Z,0.53
2023-03-27T12:15:48.741Z,0.58
2023-03-27T12:16:48.778Z,0.78
2023-03-27T12:17:48.772Z,1.13
2023-03-27T12:19:02.034Z,2.21
2023-03-27T12:19:48.741Z,2.21
2023-03-27T12:20:58.950Z,3.18
2023-03-27T12:21:48.734Z,5.36
2023-03-27T12:22:48.739Z,11.61
2023-03-27T12:23:48.737Z,10.27
2023-03-27T12:24:58.968Z,9.34
2023-03-27T12:25:48.752Z,9.29
2023-03-27T12:26:48.747Z,9.88
2023-03-27T12:27:48.731Z,11.16
2023-03-27T12:28:48.737Z,11.95
2023-03-27T12:29:48.741Z,12.31
2023-03-27T12:30:48.744Z,11.67
2023-03-27T12:31:48.922Z,8.38
2023-03-27T12:32:48.766Z,9.58
2023-03-27T12:33:48.722Z,10.21
2023-03-27T12:34:48.731Z,6.26
2023-03-27T12:35:48.785Z,3.91
2023-03-27T12:36:48.719Z,10.74
2023-03-27T12:37:48.750Z,3.35
2023-03-27T12:38:48.729Z,8.76
2023-03-27T12:39:48.732Z,7.8
2023-03-27T12:40:48.746Z,11.98
2023-03-27T12:41:48.736Z,12.29
2023-03-27T12:42:48.743Z,13.04
2023-03-27T12:43:48.721Z,13.53
2023-03-27T12:44:48.732Z,13.23
2023-03-27T12:46:01.098Z,13.45
2023-03-27T12:46:48.760Z,13.43
2023-03-27T12:47:48.774Z,11.62
2023-03-27T12:48:48.729Z,8.86
2023-03-27T12:49:48.736Z,1.99
2023-03-27T12:50:48.742Z,1.42
2023-03-27T12:51:48.728Z,1.19
2023-03-27T12:52:48.738Z,1.29
2023-03-27T12:53:48.718Z,1.22
2023-03-27T12:54:48.733Z,1.53
2023-03-27T12:55:48.748Z,1.75
2023-03-27T12:56:48.814Z,2.72
2023-03-27T12:57:48.822Z,3.85
2023-03-27T12:58:48.734Z,6.77
2023-03-27T12:59:48.758Z,6.06
2023-03-27T13:00:48.741Z,11.17
2023-03-27T13:01:52.398Z,10.41
2023-03-27T13:02:48.911Z,10.1
2023-03-27T13:03:48.856Z,10.21
2023-03-27T13:04:48.719Z,9.85
2023-03-27T13:05:48.742Z,9.17
2023-03-27T13:06:48.730Z,8.47
2023-03-27T13:07:48.752Z,8.34
2023-03-27T13:08:48.733Z,9.08
2023-03-27T13:09:48.731Z,9.57
2023-03-27T13:10:48.745Z,9.66
2023-03-27T13:11:48.731Z,3.69
2023-03-27T13:12:48.729Z,3.63
2023-03-27T13:13:48.746Z,1.64
2023-03-27T13:14:48.737Z,1.33
2023-03-27T13:15:48.767Z,1.12
2023-03-27T13:16:48.727Z,0.87
2023-03-27T13:17:48.762Z,0.65
2023-03-27T13:18:50.960Z,1.24
2023-03-27T13:19:48.732Z,1.24
2023-03-27T13:20:48.745Z,1.8
2023-03-27T13:21:48.734Z,3.05
2023-03-27T13:22:48.734Z,2.41
2023-03-27T13:23:48.735Z,1.93
2023-03-27T13:24:48.754Z,1.84
2023-03-27T13:25:48.812Z,2.24
2023-03-27T13:26:48.732Z,8.11
2023-03-27T13:27:48.727Z,9.78
2023-03-27T13:28:48.746Z,9.29
2023-03-27T13:29:48.739Z,9.05
2023-03-27T13:30:48.789Z,9.03
2023-03-27T13:31:48.728Z,8.56
2023-03-27T13:32:48.794Z,8.14
2023-03-27T13:33:48.794Z,8.8
2023-03-27T13:34:54.320Z,9.71
2023-03-27T13:35:53.513Z,4.1
2023-03-27T13:37:05.824Z,9.1
2023-03-27T13:37:53.085Z,8.37
2023-03-27T13:38:53.110Z,8.19
2023-03-27T13:39:53.089Z,8.67
2023-03-27T13:40:53.106Z,6.78
2023-03-27T13:41:53.088Z,9.09
2023-03-27T13:42:53.081Z,9.11
2023-03-27T13:43:53.089Z,9.17
2023-03-27T13:44:53.079Z,8.54
2023-03-27T13:45:53.098Z,7.36
2023-03-27T13:46:53.122Z,2.64
2023-03-27T13:47:53.136Z,1.88
2023-03-27T13:48:53.075Z,1.32